createdAt,value
2023-12-16T00:00:27.692Z,100405.66
2023-12-16T00:03:29.947Z,100408.31
2023-12-16T00:06:33.613Z,100422.44
2023-12-16T00:09:35.654Z,100413.63
2023-12-16T00:12:38.347Z,100425.09
2023-12-16T00:15:40.723Z,100421.53
2023-12-16T00:18:42.808Z,100430.38
2023-12-16T00:21:48.127Z,100433.03
2023-12-16T00:24:50.262Z,100433.03
2023-12-16T00:27:52.446Z,100434.78
2023-12-16T00:30:54.644Z,100422.41
2023-12-16T00:33:57.750Z,100400.31
2023-12-16T00:37:02.180Z,100409.16
2023-12-16T00:40:05.828Z,100401.22
2023-12-16T00:43:07.976Z,100388.84
2023-12-16T00:46:10.109Z,100408.28
2023-12-16T00:49:12.509Z,100408.28
2023-12-16T00:52:16.181Z,100411.81
2023-12-16T00:55:19.554Z,100409.19
2023-12-16T00:58:21.779Z,100396.78
2023-12-16T01:01:24.085Z,100408.28
2023-12-16T01:04:26.968Z,100402.09
2023-12-16T01:07:30.861Z,100388.84
2023-12-16T01:10:33.271Z,100410.03
2023-12-16T01:13:35.611Z,100390.59
2023-12-16T01:16:38.188Z,100404.72
2023-12-16T01:19:40.614Z,100410.91
2023-12-16T01:22:44.504Z,100406.47
2023-12-16T01:25:46.986Z,100425.03
2023-12-16T01:28:49.099Z,100413.56
2023-12-16T01:31:51.673Z,100421.50
2023-12-16T01:34:53.657Z,100427.69
2023-12-16T01:37:57.357Z,100422.38
2023-12-16T01:41:00.005Z,100433.84
2023-12-16T01:44:02.203Z,100416.16
2023-12-16T01:47:04.559Z,100422.38
2023-12-16T01:50:07.531Z,100417.09
2023-12-16T01:53:11.234Z,100421.53
2023-12-16T01:56:13.523Z,100411.78
2023-12-16T01:59:15.425Z,100421.50
2023-12-16T02:02:20.381Z,100425.03
2023-12-16T02:05:22.597Z,100428.56
2023-12-16T02:08:26.001Z,100431.22
2023-12-16T02:11:29.256Z,100436.50
2023-12-16T02:14:31.309Z,100428.56
2023-12-16T02:17:33.363Z,100430.31
2023-12-16T02:20:35.468Z,100426.78
2023-12-16T02:23:39.497Z,100434.75
2023-12-16T02:26:41.741Z,100432.13
2023-12-16T02:29:43.976Z,100434.78
2023-12-16T02:32:45.988Z,100428.56
2023-12-16T02:35:47.923Z,100439.19
2023-12-16T02:38:51.303Z,100435.63
2023-12-16T02:41:53.334Z,100431.22
2023-12-16T02:44:55.308Z,100433.00
2023-12-16T02:47:58.360Z,100446.25
2023-12-16T02:51:00.476Z,100440.94
2023-12-16T02:54:04.201Z,100447.13
2023-12-16T02:57:06.364Z,100440.91
2023-12-16T03:00:08.845Z,100440.94
2023-12-16T03:03:10.698Z,100443.59
2023-12-16T03:06:12.784Z,100452.44
2023-12-16T03:09:16.232Z,100445.38
2023-12-16T03:12:20.515Z,100443.59
2023-12-16T03:15:24.329Z,100442.72
2023-12-16T03:18:26.869Z,100443.59
2023-12-16T03:21:30.772Z,100442.72
2023-12-16T03:24:34.160Z,100441.84
2023-12-16T03:27:36.366Z,100438.31
2023-12-16T03:30:40.034Z,100439.16
2023-12-16T03:33:42.174Z,100448.88
2023-12-16T03:36:44.777Z,100435.66
2023-12-16T03:39:48.350Z,100437.38
2023-12-16T03:42:50.299Z,100436.50
2023-12-16T03:45:52.213Z,100431.22
2023-12-16T03:48:54.231Z,100433.84
2023-12-16T03:51:57.936Z,100437.38
2023-12-16T03:55:01.659Z,100444.44
2023-12-16T03:58:03.906Z,100434.75
2023-12-16T04:01:06.055Z,100439.13
2023-12-16T04:04:08.504Z,100433.84
2023-12-16T04:07:12.769Z,100426.78
2023-12-16T04:10:16.025Z,100431.22
2023-12-16T04:13:18.182Z,100418.88
2023-12-16T04:16:21.001Z,100425.06
2023-12-16T04:19:23.060Z,100422.41
2023-12-16T04:22:25.262Z,100422.41
2023-12-16T04:25:28.796Z,100424.19
2023-12-16T04:28:30.881Z,100425.91
2023-12-16T04:31:32.892Z,100425.91
2023-12-16T04:34:34.618Z,100428.56
2023-12-16T04:37:36.996Z,100431.22
2023-12-16T04:40:40.568Z,100428.56
2023-12-16T04:43:42.474Z,100423.25
2023-12-16T04:46:44.308Z,100440.06
2023-12-16T04:49:47.566Z,100428.56
2023-12-16T04:52:49.530Z,100428.56
2023-12-16T04:55:53.623Z,100436.50
2023-12-16T04:58:55.949Z,100431.22
2023-12-16T05:01:57.958Z,100429.44
2023-12-16T05:04:59.987Z,100427.69
2023-12-16T05:08:02.018Z,100427.69
2023-12-16T05:11:05.269Z,100440.06
2023-12-16T05:14:06.988Z,100440.94
2023-12-16T05:17:08.963Z,100448.91
2023-12-16T05:20:11.047Z,100434.75
2023-12-16T05:23:12.935Z,100438.28
2023-12-16T05:26:16.440Z,100441.81
2023-12-16T05:29:18.397Z,100449.75
2023-12-16T05:32:20.387Z,100448.88
2023-12-16T05:35:22.694Z,100455.03
2023-12-16T05:38:24.566Z,100456.81
2023-12-16T05:41:28.065Z,100462.09
2023-12-16T05:44:31.460Z,100455.06
2023-12-16T05:47:33.707Z,100451.50
2023-12-16T05:50:35.546Z,100452.41
2023-12-16T05:53:37.633Z,100455.97
2023-12-16T05:56:41.631Z,100448.88
2023-12-16T05:59:43.449Z,100455.03
2023-12-16T06:02:45.930Z,100455.91
2023-12-16T06:05:49.208Z,100454.16
2023-12-16T06:08:51.515Z,100448.81
2023-12-16T06:11:59.314Z,100445.34
2023-12-16T06:15:00.947Z,100444.44
2023-12-16T06:18:05.334Z,100447.06
2023-12-16T06:21:07.631Z,100458.53
2023-12-16T06:24:11.602Z,100464.72
2023-12-16T06:27:15.078Z,100461.19
2023-12-16T06:30:16.999Z,100463.81
2023-12-16T06:33:18.930Z,100472.59
2023-12-16T06:36:20.843Z,100477.94
2023-12-16T06:39:24.541Z,100475.28
2023-12-16T06:42:27.739Z,100484.06
2023-12-16T06:45:29.535Z,100475.25
2023-12-16T06:48:31.513Z,100482.34
2023-12-16T06:51:33.412Z,100474.41
2023-12-16T06:54:35.116Z,100486.72
2023-12-16T06:57:38.705Z,100490.19
2023-12-16T07:00:41.390Z,100487.56
2023-12-16T07:03:43.529Z,100484.00
2023-12-16T07:06:45.476Z,100504.31
2023-12-16T07:09:49.500Z,100494.59
2023-12-16T07:12:53.902Z,100512.25
2023-12-16T07:15:56.360Z,100510.47
2023-12-16T07:18:59.630Z,100502.47
2023-12-16T07:22:07.554Z,100506.88
2023-12-16T07:25:09.718Z,100499.75
2023-12-16T07:28:13.517Z,100505.00
2023-12-16T07:31:15.796Z,100512.13
2023-12-16T07:34:18.271Z,100513.94
2023-12-16T07:37:20.491Z,100511.28
2023-12-16T07:40:22.516Z,100504.19
2023-12-16T07:43:25.912Z,100508.66
2023-12-16T07:46:28.246Z,100502.47
2023-12-16T07:49:30.123Z,100494.47
2023-12-16T07:52:32.304Z,100493.59
2023-12-16T07:55:34.508Z,100504.22
2023-12-16T07:58:37.953Z,100502.47
2023-12-16T08:01:40.068Z,100501.53
2023-12-16T08:04:42.307Z,100502.41
2023-12-16T08:07:46.700Z,100507.69
2023-12-16T08:10:48.584Z,100498.91
2023-12-16T08:13:51.787Z,100501.59
2023-12-16T08:16:53.704Z,100496.31
2023-12-16T08:19:55.931Z,100486.63
2023-12-16T08:22:57.929Z,100486.66
2023-12-16T08:25:59.806Z,100486.63
2023-12-16T08:29:04.082Z,100494.59
2023-12-16T08:32:06.290Z,100497.28
2023-12-16T08:35:08.716Z,100499.06
2023-12-16T08:38:10.639Z,100505.28
2023-12-16T08:41:13.365Z,100515.94
2023-12-16T08:44:16.879Z,100521.25
2023-12-16T08:47:19.719Z,100521.22
2023-12-16T08:50:24.072Z,100522.16
2023-12-16T08:53:26.107Z,100535.41
2023-12-16T08:56:28.036Z,100539.88
2023-12-16T08:59:31.546Z,100544.31
2023-12-16T09:02:33.787Z,100546.97
2023-12-16T09:05:37.666Z,100532.84
2023-12-16T09:08:40.118Z,100535.50
2023-12-16T09:11:42.030Z,100534.59
2023-12-16T09:14:45.168Z,100535.53
2023-12-16T09:17:48.638Z,100530.22
2023-12-16T09:20:51.061Z,100526.69
2023-12-16T09:23:52.771Z,100529.34
2023-12-16T09:26:54.885Z,100524.03
2023-12-16T09:29:58.266Z,100528.50
2023-12-16T09:33:00.435Z,100521.47
2023-12-16T09:36:03.139Z,100513.53
2023-12-16T09:39:05.252Z,100507.38
2023-12-16T09:42:07.577Z,100510.91
2023-12-16T09:45:12.704Z,100505.63
2023-12-16T09:48:20.929Z,100524.19
2023-12-16T09:51:23.470Z,100526.81
2023-12-16T09:54:25.531Z,100526.81
2023-12-16T09:57:27.448Z,100514.44
2023-12-16T10:00:31.752Z,100515.31
2023-12-16T10:03:38.767Z,100525.03
2023-12-16T10:06:40.861Z,100520.66
2023-12-16T10:09:43.066Z,100517.13
2023-12-16T10:12:48.117Z,100521.53
2023-12-16T10:15:53.680Z,100514.44
2023-12-16T10:18:59.728Z,100506.47
2023-12-16T10:22:48.181Z,100503.84
2023-12-16T10:25:56.444Z,100512.69
2023-12-16T10:29:02.254Z,100508.25
2023-12-16T10:32:10.736Z,100500.28
2023-12-16T10:35:17.351Z,100497.63
2023-12-16T10:38:19.004Z,100502.03
2023-12-16T10:41:23.011Z,100501.16
2023-12-16T10:44:26.002Z,100500.25
2023-12-16T10:47:33.191Z,100491.41
2023-12-16T10:50:43.434Z,100498.50
2023-12-16T10:53:52.248Z,100473.69
2023-12-16T10:56:59.989Z,100482.53
2023-12-16T11:00:05.218Z,100471.03
2023-12-16T11:03:13.780Z,100473.66
2023-12-16T11:06:18.007Z,100475.44
2023-12-16T11:09:19.824Z,100458.66
2023-12-16T11:12:22.299Z,100453.34
2023-12-16T11:15:25.207Z,100452.44
2023-12-16T11:18:29.694Z,100438.28
2023-12-16T11:21:31.790Z,100426.75
2023-12-16T11:24:39.142Z,100422.34
2023-12-16T11:27:40.970Z,100424.97
2023-12-16T11:30:42.915Z,100412.53
2023-12-16T11:33:47.045Z,100407.22
2023-12-16T11:36:51.333Z,100408.97
2023-12-16T11:39:56.007Z,100418.69
2023-12-16T11:43:04.152Z,100404.56
2023-12-16T11:46:06.721Z,100414.31
2023-12-16T11:49:12.412Z,100404.56
2023-12-16T11:52:14.706Z,100408.13
2023-12-16T11:55:17.538Z,100400.19
2023-12-16T11:58:20.088Z,100391.31
2023-12-16T12:01:22.300Z,100393.97
2023-12-16T12:04:25.502Z,100381.53
2023-12-16T12:07:27.406Z,100390.41
2023-12-16T12:10:29.338Z,100370.00
2023-12-16T12:13:31.267Z,100365.59
2023-12-16T12:16:33.303Z,100372.63
2023-12-16T12:19:36.549Z,100369.09
2023-12-16T12:22:38.588Z,100369.09
2023-12-16T12:25:40.513Z,100368.22
2023-12-16T12:28:42.251Z,100356.69
2023-12-16T12:31:44.734Z,100358.47
2023-12-16T12:34:57.051Z,100348.75
2023-12-16T12:38:00.652Z,100335.47
2023-12-16T12:41:06.200Z,100338.09
2023-12-16T12:44:12.614Z,100330.13
2023-12-16T12:47:14.293Z,100327.47
2023-12-16T12:50:21.522Z,100333.66
2023-12-16T12:53:27.103Z,100321.28
2023-12-16T12:56:30.192Z,100321.31
2023-12-16T12:59:59.197Z,100321.31
2023-12-16T13:02:54.944Z,100305.41
2023-12-16T13:06:03.375Z,100295.72
2023-12-16T13:09:10.188Z,100301.91
2023-12-16T13:12:13.925Z,100297.53
2023-12-16T13:15:16.626Z,100289.56
2023-12-16T13:18:23.009Z,100291.34
2023-12-16T13:21:29.131Z,100283.38
2023-12-16T13:24:33.920Z,100298.44
2023-12-16T13:27:36.038Z,100286.97
2023-12-16T13:30:38.177Z,100293.16
2023-12-16T13:33:41.679Z,100289.59
2023-12-16T13:36:50.418Z,100290.50
2023-12-16T13:39:53.569Z,100284.28
2023-12-16T13:42:55.761Z,100277.22
2023-12-16T13:45:58.004Z,100274.56
2023-12-16T13:49:04.292Z,100284.31
2023-12-16T13:52:10.365Z,100280.78
2023-12-16T13:55:12.116Z,100281.66
2023-12-16T13:58:13.845Z,100282.53
2023-12-16T14:01:21.491Z,100277.25
2023-12-16T14:04:28.314Z,100288.75
2023-12-16T14:07:31.520Z,100275.50
2023-12-16T14:10:33.239Z,100287.00
2023-12-16T14:13:36.084Z,100287.00
2023-12-16T14:16:38.788Z,100278.16
2023-12-16T14:19:42.457Z,100289.69
2023-12-16T14:22:45.629Z,100287.03
2023-12-16T14:25:47.344Z,100282.66
2023-12-16T14:28:50.181Z,100286.22
2023-12-16T14:31:51.923Z,100285.34
2023-12-16T14:34:53.753Z,100279.19
2023-12-16T14:37:56.867Z,100288.88
2023-12-16T14:40:58.493Z,100283.59
2023-12-16T14:44:00.160Z,100295.97
2023-12-16T14:47:01.815Z,100291.56
2023-12-16T14:50:03.972Z,100297.78
2023-12-16T14:53:08.157Z,100294.25
2023-12-16T14:56:09.846Z,100295.13
2023-12-16T14:59:11.502Z,100288.06
2023-12-16T15:02:13.254Z,100289.84
2023-12-16T15:05:15.108Z,100294.25
2023-12-16T15:08:21.185Z,100297.81
2023-12-16T15:11:22.831Z,100301.34
2023-12-16T15:14:24.494Z,100296.94
2023-12-16T15:17:26.118Z,100294.28
2023-12-16T15:20:30.896Z,100302.22
2023-12-16T15:23:34.026Z,100284.56
2023-12-16T15:26:37.924Z,100279.28
2023-12-16T15:29:40.151Z,100278.41
2023-12-16T15:32:42.409Z,100274.88
2023-12-16T15:35:45.661Z,100280.19
2023-12-16T15:38:53.013Z,100282.84
2023-12-16T15:41:55.244Z,100285.50
2023-12-16T15:44:57.064Z,100288.13
2023-12-16T15:47:59.230Z,100277.53
2023-12-16T15:51:01.155Z,100285.47
2023-12-16T15:54:04.881Z,100296.97
2023-12-16T15:57:07.360Z,100284.59
2023-12-16T16:00:13.290Z,100305.81
2023-12-16T16:03:15.297Z,100304.03
2023-12-16T16:06:17.156Z,100307.59
2023-12-16T16:09:20.470Z,100302.28
2023-12-16T16:12:22.527Z,100302.28
2023-12-16T16:15:25.988Z,100309.34
2023-12-16T16:18:27.922Z,100311.13
2023-12-16T16:21:29.830Z,100318.19
2023-12-16T16:24:33.262Z,100314.66
2023-12-16T16:27:35.238Z,100326.16
2023-12-16T16:30:37.045Z,100325.28
2023-12-16T16:33:40.269Z,100321.72
2023-12-16T16:36:42.092Z,100326.16
2023-12-16T16:39:45.629Z,100343.84
2023-12-16T16:42:47.433Z,100342.94
2023-12-16T16:45:49.100Z,100340.31
2023-12-16T16:48:50.840Z,100335.91
2023-12-16T16:51:52.662Z,100327.97
2023-12-16T16:54:55.592Z,100316.47
2023-12-16T16:57:57.822Z,100325.28
2023-12-16T17:00:59.503Z,100329.72
2023-12-16T17:04:01.186Z,100311.16
2023-12-16T17:07:03.005Z,100316.44
2023-12-16T17:10:06.495Z,100327.94
2023-12-16T17:13:08.925Z,100330.59
2023-12-16T17:16:14.150Z,100326.19
2023-12-16T17:19:17.611Z,100298.78
2023-12-16T17:22:19.990Z,100294.34
2023-12-16T17:25:23.329Z,100297.88
2023-12-16T17:28:25.252Z,100308.47
2023-12-16T17:31:26.922Z,100293.44
2023-12-16T17:34:28.574Z,100298.72
2023-12-16T17:37:30.279Z,100297.88
2023-12-16T17:40:33.651Z,100309.38
2023-12-16T17:43:35.191Z,100328.78
2023-12-16T17:46:37.006Z,100319.94
2023-12-16T17:49:38.647Z,100316.41
2023-12-16T17:52:40.376Z,100320.81
2023-12-16T17:55:43.444Z,100324.34
2023-12-16T17:58:45.134Z,100321.72
2023-12-16T18:01:47.559Z,100333.19
2023-12-16T18:04:49.365Z,100345.56
2023-12-16T18:07:50.985Z,100340.25
2023-12-16T18:10:53.978Z,100349.13
2023-12-16T18:13:55.653Z,100352.63
2023-12-16T18:16:57.621Z,100357.94
2023-12-16T18:19:59.226Z,100366.78
2023-12-16T18:23:00.838Z,100349.09
2023-12-16T18:26:04.532Z,100356.16
2023-12-16T18:29:06.133Z,100364.13
2023-12-16T18:32:09.006Z,100365.91
2023-12-16T18:35:12.098Z,100359.69
2023-12-16T18:38:14.346Z,100357.03
2023-12-16T18:41:19.595Z,100364.09
2023-12-16T18:44:21.300Z,100361.44
2023-12-16T18:47:22.937Z,100348.19
2023-12-16T18:50:26.586Z,100350.84
2023-12-16T18:53:28.344Z,100366.78
2023-12-16T18:56:31.326Z,100358.81
2023-12-16T18:59:32.972Z,100344.63
2023-12-16T19:02:34.864Z,100349.94
2023-12-16T19:05:36.776Z,100353.50
2023-12-16T19:08:38.606Z,100352.63
2023-12-16T19:11:42.548Z,100361.44
2023-12-16T19:14:44.357Z,100357.91
2023-12-16T19:17:46.510Z,100345.50
2023-12-16T19:20:48.776Z,100354.38
2023-12-16T19:23:50.472Z,100373.81
2023-12-16T19:26:53.735Z,100364.97
2023-12-16T19:29:55.599Z,100379.09
2023-12-16T19:32:57.599Z,100380.00
2023-12-16T19:35:59.331Z,100367.59
2023-12-16T19:39:01.057Z,100369.38
2023-12-16T19:42:05.847Z,100365.84
2023-12-16T19:45:08.175Z,100366.75
2023-12-16T19:48:09.979Z,100362.31
2023-12-16T19:51:13.257Z,100358.75
2023-12-16T19:54:14.988Z,100352.56
2023-12-16T19:57:18.134Z,100349.03
2023-12-16T20:00:20.096Z,100351.66
2023-12-16T20:03:21.987Z,100341.06
2023-12-16T20:06:23.845Z,100338.41
2023-12-16T20:09:26.100Z,100333.09
2023-12-16T20:12:29.202Z,100324.25
2023-12-16T20:15:30.789Z,100336.63
2023-12-16T20:18:32.647Z,100335.75
2023-12-16T20:21:34.411Z,100331.31
2023-12-16T20:24:36.054Z,100340.16
2023-12-16T20:27:39.315Z,100339.28
2023-12-16T20:30:41.398Z,100329.56
2023-12-16T20:33:43.376Z,100335.75
2023-12-16T20:36:45.304Z,100330.44
2023-12-16T20:40:05.491Z,100334.84
2023-12-16T20:43:08.504Z,100325.13
2023-12-16T20:46:10.092Z,100327.78
2023-12-16T20:49:11.820Z,100333.06
2023-12-16T20:52:13.558Z,100330.41
2023-12-16T20:55:16.633Z,100346.34
2023-12-16T20:58:19.888Z,100341.91
2023-12-16T21:01:21.449Z,100339.25
2023-12-16T21:04:23.127Z,100352.53
2023-12-16T21:07:24.759Z,100343.69
2023-12-16T21:10:27.061Z,100341.03
2023-12-16T21:13:30.021Z,100339.25
2023-12-16T21:16:31.623Z,100341.91
2023-12-16T21:19:33.553Z,100350.72
2023-12-16T21:22:35.252Z,100348.97
2023-12-16T21:25:36.897Z,100353.38
2023-12-16T21:28:39.881Z,100352.50
2023-12-16T21:31:41.530Z,100342.78
2023-12-16T21:34:43.562Z,100341.91
2023-12-16T21:37:45.578Z,100356.06
2023-12-16T21:40:47.574Z,100353.41
2023-12-16T21:43:54.228Z,100348.09
2023-12-16T21:46:57.987Z,100349.88
2023-12-16T21:49:59.617Z,100350.75
2023-12-16T21:53:01.395Z,100340.13
2023-12-16T21:56:04.081Z,100348.97
2023-12-16T21:59:07.006Z,100329.53
2023-12-16T22:02:08.843Z,100334.84
2023-12-16T22:05:10.470Z,100340.16
2023-12-16T22:08:12.218Z,100345.44
2023-12-16T22:11:13.904Z,100351.63
2023-12-16T22:14:16.864Z,100351.63
2023-12-16T22:17:18.496Z,100344.56
2023-12-16T22:20:20.094Z,100341.03
2023-12-16T22:23:21.761Z,100333.06
2023-12-16T22:26:23.496Z,100326.88
2023-12-16T22:29:26.695Z,100313.63
2023-12-16T22:32:28.402Z,100327.78
2023-12-16T22:35:30.340Z,100327.78
2023-12-16T22:38:32.005Z,100332.16
2023-12-16T22:41:33.674Z,100327.78
2023-12-16T22:44:36.728Z,100327.75
2023-12-16T22:47:38.680Z,100339.25
2023-12-16T22:50:40.581Z,100326.00
2023-12-16T22:53:42.409Z,100312.72
2023-12-16T22:56:44.151Z,100333.94
2023-12-16T22:59:47.367Z,100329.50
2023-12-16T23:02:49.226Z,100332.19
2023-12-16T23:05:50.949Z,100326.00
2023-12-16T23:08:52.613Z,100334.81
2023-12-16T23:11:54.298Z,100317.13
2023-12-16T23:14:57.306Z,100341.91
2023-12-16T23:17:59.105Z,100323.34
2023-12-16T23:21:04.342Z,100338.38
2023-12-16T23:24:06.400Z,100330.41
2023-12-16T23:27:08.062Z,100324.25
2023-12-16T23:30:11.981Z,100325.13
2023-12-16T23:33:13.893Z,100325.13
2023-12-16T23:36:15.714Z,100323.38
2023-12-16T23:39:17.876Z,100323.38
2023-12-16T23:42:20.276Z,100326.03
2023-12-16T23:45:23.629Z,100309.22
2023-12-16T23:48:25.505Z,100314.53
2023-12-16T23:51:27.416Z,100310.13
2023-12-16T23:54:29.053Z,100303.06
2023-12-16T23:57:30.876Z,100315.44
